sensor_id;sensor_type;location;lat;lon;timestamp;P1;durP1;ratioP1;P2;durP2;ratioP2
18789;SDS011;9523;42.650;23.386;2022-07-09T00:00:54;9.57;;;7.60;;
18789;SDS011;9523;42.650;23.386;2022-07-09T00:03:22;9.60;;;8.60;;
18789;SDS011;9523;42.650;23.386;2022-07-09T00:05:49;9.93;;;8.80;;
18789;SDS011;9523;42.650;23.386;2022-07-09T00:08:16;10.83;;;9.33;;
18789;SDS011;9523;42.650;23.386;2022-07-09T00:10:43;10.70;;;9.27;;
18789;SDS011;9523;42.650;23.386;2022-07-09T00:13:10;11.63;;;10.43;;
18789;SDS011;9523;42.650;23.386;2022-07-09T00:15:39;15.77;;;10.37;;
18789;SDS011;9523;42.650;23.386;2022-07-09T00:18:10;11.00;;;9.90;;
18789;SDS011;9523;42.650;23.386;2022-07-09T00:20:37;15.50;;;11.67;;
18789;SDS011;9523;42.650;23.386;2022-07-09T00:23:04;12.13;;;10.87;;
18789;SDS011;9523;42.650;23.386;2022-07-09T00:25:31;17.80;;;15.43;;
18789;SDS011;9523;42.650;23.386;2022-07-09T00:27:58;16.27;;;14.57;;
18789;SDS011;9523;42.650;23.386;2022-07-09T00:30:24;16.60;;;14.77;;
18789;SDS011;9523;42.650;23.386;2022-07-09T00:32:51;16.80;;;15.10;;
18789;SDS011;9523;42.650;23.386;2022-07-09T00:35:20;18.30;;;16.20;;
18789;SDS011;9523;42.650;23.386;2022-07-09T00:37:46;16.80;;;14.07;;
18789;SDS011;9523;42.650;23.386;2022-07-09T00:40:13;16.70;;;14.93;;
18789;SDS011;9523;42.650;23.386;2022-07-09T00:42:40;15.83;;;13.93;;
18789;SDS011;9523;42.650;23.386;2022-07-09T00:45:07;14.30;;;12.80;;
18789;SDS011;9523;42.650;23.386;2022-07-09T00:47:34;12.97;;;11.00;;
18789;SDS011;9523;42.650;23.386;2022-07-09T00:50:01;11.27;;;10.07;;
18789;SDS011;9523;42.650;23.386;2022-07-09T00:52:31;13.83;;;12.33;;
18789;SDS011;9523;42.650;23.386;2022-07-09T00:55:01;15.93;;;12.40;;
18789;SDS011;9523;42.650;23.386;2022-07-09T00:57:29;13.30;;;11.50;;
18789;SDS011;9523;42.650;23.386;2022-07-09T00:59:57;11.60;;;10.40;;
18789;SDS011;9523;42.650;23.386;2022-07-09T01:02:25;13.30;;;10.20;;
18789;SDS011;9523;42.650;23.386;2022-07-09T01:04:52;11.47;;;9.60;;
18789;SDS011;9523;42.650;23.386;2022-07-09T01:07:19;11.13;;;9.60;;
18789;SDS011;9523;42.650;23.386;2022-07-09T01:09:47;10.60;;;9.50;;
18789;SDS011;9523;42.650;23.386;2022-07-09T01:12:14;9.23;;;8.33;;
18789;SDS011;9523;42.650;23.386;2022-07-09T01:14:41;10.60;;;8.87;;
18789;SDS011;9523;42.650;23.386;2022-07-09T01:17:08;9.70;;;8.10;;
18789;SDS011;9523;42.650;23.386;2022-07-09T01:19:34;11.47;;;10.27;;
18789;SDS011;9523;42.650;23.386;2022-07-09T01:22:03;9.03;;;8.00;;
18789;SDS011;9523;42.650;23.386;2022-07-09T01:24:30;8.20;;;7.33;;
18789;SDS011;9523;42.650;23.386;2022-07-09T01:26:57;8.97;;;8.07;;
18789;SDS011;9523;42.650;23.386;2022-07-09T01:29:24;8.20;;;7.33;;
18789;SDS011;9523;42.650;23.386;2022-07-09T01:31:51;9.37;;;8.17;;
18789;SDS011;9523;42.650;23.386;2022-07-09T01:34:17;9.00;;;8.10;;
18789;SDS011;9523;42.650;23.386;2022-07-09T01:36:44;10.30;;;8.37;;
18789;SDS011;9523;42.650;23.386;2022-07-09T01:39:13;9.73;;;7.50;;
18789;SDS011;9523;42.650;23.386;2022-07-09T01:41:40;8.80;;;7.90;;
18789;SDS011;9523;42.650;23.386;2022-07-09T01:44:07;12.60;;;8.20;;
18789;SDS011;9523;42.650;23.386;2022-07-09T01:46:34;8.80;;;6.70;;
18789;SDS011;9523;42.650;23.386;2022-07-09T01:49:01;8.60;;;7.70;;
18789;SDS011;9523;42.650;23.386;2022-07-09T01:51:28;10.63;;;7.97;;
18789;SDS011;9523;42.650;23.386;2022-07-09T01:53:55;9.23;;;7.80;;
18789;SDS011;9523;42.650;23.386;2022-07-09T01:56:23;8.60;;;7.20;;
18789;SDS011;9523;42.650;23.386;2022-07-09T01:58:50;8.80;;;7.73;;
18789;SDS011;9523;42.650;23.386;2022-07-09T02:01:17;8.00;;;7.20;;
18789;SDS011;9523;42.650;23.386;2022-07-09T02:03:45;7.83;;;7.03;;
18789;SDS011;9523;42.650;23.386;2022-07-09T02:06:13;9.23;;;7.20;;
18789;SDS011;9523;42.650;23.386;2022-07-09T02:08:39;7.00;;;6.17;;
18789;SDS011;9523;42.650;23.386;2022-07-09T02:11:09;8.00;;;6.50;;
18789;SDS011;9523;42.650;23.386;2022-07-09T02:13:38;6.57;;;5.87;;
18789;SDS011;9523;42.650;23.386;2022-07-09T02:16:05;6.40;;;5.80;;
18789;SDS011;9523;42.650;23.386;2022-07-09T02:18:33;6.27;;;5.57;;
18789;SDS011;9523;42.650;23.386;2022-07-09T02:21:00;6.50;;;5.47;;
18789;SDS011;9523;42.650;23.386;2022-07-09T02:23:27;7.00;;;6.10;;
18789;SDS011;9523;42.650;23.386;2022-07-09T02:25:54;10.37;;;9.27;;
18789;SDS011;9523;42.650;23.386;2022-07-09T02:28:21;6.40;;;5.80;;
18789;SDS011;9523;42.650;23.386;2022-07-09T02:30:49;6.50;;;5.50;;
18789;SDS011;9523;42.650;23.386;2022-07-09T02:33:16;6.80;;;5.90;;
18789;SDS011;9523;42.650;23.386;2022-07-09T02:35:42;7.43;;;5.67;;
18789;SDS011;9523;42.650;23.386;2022-07-09T02:38:09;5.80;;;5.20;;
18789;SDS011;9523;42.650;23.386;2022-07-09T02:40:36;5.90;;;5.40;;
18789;SDS011;9523;42.650;23.386;2022-07-09T02:43:03;5.83;;;5.23;;
18789;SDS011;9523;42.650;23.386;2022-07-09T02:45:30;6.43;;;5.23;;
18789;SDS011;9523;42.650;23.386;2022-07-09T02:47:58;6.10;;;5.50;;
18789;SDS011;9523;42.650;23.386;2022-07-09T02:50:25;5.90;;;5.30;;
18789;SDS011;9523;42.650;23.386;2022-07-09T02:52:52;6.63;;;5.93;;
18789;SDS011;9523;42.650;23.386;2022-07-09T02:55:19;5.53;;;5.03;;
18789;SDS011;9523;42.650;23.386;2022-07-09T02:57:46;6.93;;;4.93;;
18789;SDS011;9523;42.650;23.386;2022-07-09T03:00:13;5.27;;;4.77;;
18789;SDS011;9523;42.650;23.386;2022-07-09T03:02:40;5.50;;;5.00;;
18789;SDS011;9523;42.650;23.386;2022-07-09T03:05:08;7.13;;;4.90;;
18789;SDS011;9523;42.650;23.386;2022-07-09T03:07:35;5.67;;;5.07;;
18789;SDS011;9523;42.650;23.386;2022-07-09T03:10:02;5.67;;;5.00;;
18789;SDS011;9523;42.650;23.386;2022-07-09T03:12:30;7.13;;;6.43;;
18789;SDS011;9523;42.650;23.386;2022-07-09T03:14:56;8.90;;;5.13;;
18789;SDS011;9523;42.650;23.386;2022-07-09T03:17:23;5.73;;;5.23;;
18789;SDS011;9523;42.650;23.386;2022-07-09T03:19:51;6.50;;;5.23;;
18789;SDS011;9523;42.650;23.386;2022-07-09T03:22:19;5.40;;;4.90;;
18789;SDS011;9523;42.650;23.386;2022-07-09T03:24:46;6.13;;;5.53;;
18789;SDS011;9523;42.650;23.386;2022-07-09T03:27:13;5.83;;;5.27;;
18789;SDS011;9523;42.650;23.386;2022-07-09T03:29:40;6.23;;;4.73;;
18789;SDS011;9523;42.650;23.386;2022-07-09T03:32:07;5.77;;;5.23;;
18789;SDS011;9523;42.650;23.386;2022-07-09T03:34:38;6.83;;;5.70;;
18789;SDS011;9523;42.650;23.386;2022-07-09T03:37:05;5.80;;;5.20;;
18789;SDS011;9523;42.650;23.386;2022-07-09T03:39:33;5.83;;;5.10;;
18789;SDS011;9523;42.650;23.386;2022-07-09T03:42:00;9.47;;;4.93;;
18789;SDS011;9523;42.650;23.386;2022-07-09T03:44:27;5.30;;;4.80;;
18789;SDS011;9523;42.650;23.386;2022-07-09T03:46:54;5.60;;;5.03;;
18789;SDS011;9523;42.650;23.386;2022-07-09T03:49:21;5.63;;;5.13;;
18789;SDS011;9523;42.650;23.386;2022-07-09T03:51:48;6.07;;;5.47;;
18789;SDS011;9523;42.650;23.386;2022-07-09T03:54:15;7.23;;;4.80;;
18789;SDS011;9523;42.650;23.386;2022-07-09T03:56:43;6.00;;;5.40;;
18789;SDS011;9523;42.650;23.386;2022-07-09T03:59:10;6.70;;;6.00;;
18789;SDS011;9523;42.650;23.386;2022-07-09T04:01:37;7.53;;;5.77;;
18789;SDS011;9523;42.650;23.386;2022-07-09T04:04:04;5.93;;;5.37;;
18789;SDS011;9523;42.650;23.386;2022-07-09T04:06:31;5.70;;;5.07;;
18789;SDS011;9523;42.650;23.386;2022-07-09T04:08:58;5.50;;;5.00;;
18789;SDS011;9523;42.650;23.386;2022-07-09T04:11:29;5.40;;;4.90;;
18789;SDS011;9523;42.650;23.386;2022-07-09T04:13:57;5.37;;;4.87;;
18789;SDS011;9523;42.650;23.386;2022-07-09T04:16:24;5.27;;;4.77;;
18789;SDS011;9523;42.650;23.386;2022-07-09T04:18:51;6.03;;;5.43;;
18789;SDS011;9523;42.650;23.386;2022-07-09T04:21:18;5.83;;;5.33;;
18789;SDS011;9523;42.650;23.386;2022-07-09T04:23:47;6.43;;;4.93;;
18789;SDS011;9523;42.650;23.386;2022-07-09T04:26:14;6.03;;;5.43;;
18789;SDS011;9523;42.650;23.386;2022-07-09T04:28:41;5.67;;;5.17;;
18789;SDS011;9523;42.650;23.386;2022-07-09T04:31:09;6.20;;;5.60;;
18789;SDS011;9523;42.650;23.386;2022-07-09T04:33:36;6.13;;;5.53;;
18789;SDS011;9523;42.650;23.386;2022-07-09T04:36:03;6.23;;;5.27;;
18789;SDS011;9523;42.650;23.386;2022-07-09T04:38:30;6.13;;;5.43;;
18789;SDS011;9523;42.650;23.386;2022-07-09T04:40:57;5.97;;;5.40;;
18789;SDS011;9523;42.650;23.386;2022-07-09T04:43:24;7.20;;;5.60;;
18789;SDS011;9523;42.650;23.386;2022-07-09T04:45:51;7.23;;;6.53;;
18789;SDS011;9523;42.650;23.386;2022-07-09T04:48:19;6.47;;;5.87;;
18789;SDS011;9523;42.650;23.386;2022-07-09T04:50:46;5.77;;;5.17;;
18789;SDS011;9523;42.650;23.386;2022-07-09T04:53:16;6.40;;;5.80;;
18789;SDS011;9523;42.650;23.386;2022-07-09T04:55:43;5.77;;;5.20;;
18789;SDS011;9523;42.650;23.386;2022-07-09T04:58:10;6.10;;;5.50;;
18789;SDS011;9523;42.650;23.386;2022-07-09T05:00:37;8.20;;;6.90;;
18789;SDS011;9523;42.650;23.386;2022-07-09T05:03:04;5.53;;;5.03;;
18789;SDS011;9523;42.650;23.386;2022-07-09T05:05:33;6.57;;;5.60;;
18789;SDS011;9523;42.650;23.386;2022-07-09T05:08:00;6.47;;;5.30;;
18789;SDS011;9523;42.650;23.386;2022-07-09T05:10:26;6.70;;;6.00;;
18789;SDS011;9523;42.650;23.386;2022-07-09T05:12:53;7.53;;;6.03;;
18789;SDS011;9523;42.650;23.386;2022-07-09T05:15:20;6.70;;;5.63;;
18789;SDS011;9523;42.650;23.386;2022-07-09T05:17:47;6.53;;;5.93;;
18789;SDS011;9523;42.650;23.386;2022-07-09T05:20:14;8.03;;;6.70;;
18789;SDS011;9523;42.650;23.386;2022-07-09T05:22:43;8.07;;;5.63;;
18789;SDS011;9523;42.650;23.386;2022-07-09T05:25:10;6.50;;;5.63;;
18789;SDS011;9523;42.650;23.386;2022-07-09T05:27:40;6.53;;;5.70;;
18789;SDS011;9523;42.650;23.386;2022-07-09T05:30:08;6.27;;;5.67;;
18789;SDS011;9523;42.650;23.386;2022-07-09T05:32:35;6.80;;;5.80;;
18789;SDS011;9523;42.650;23.386;2022-07-09T05:35:02;8.17;;;5.90;;
18789;SDS011;9523;42.650;23.386;2022-07-09T05:37:30;5.53;;;5.03;;
18789;SDS011;9523;42.650;23.386;2022-07-09T05:39:58;6.10;;;5.50;;
18789;SDS011;9523;42.650;23.386;2022-07-09T05:42:30;6.60;;;5.70;;
18789;SDS011;9523;42.650;23.386;2022-07-09T05:44:57;7.03;;;5.27;;
18789;SDS011;9523;42.650;23.386;2022-07-09T05:47:24;6.47;;;5.63;;
18789;SDS011;9523;42.650;23.386;2022-07-09T05:49:51;5.90;;;5.30;;
18789;SDS011;9523;42.650;23.386;2022-07-09T05:52:18;6.20;;;5.13;;
18789;SDS011;9523;42.650;23.386;2022-07-09T05:54:45;5.43;;;4.93;;
18789;SDS011;9523;42.650;23.386;2022-07-09T05:57:13;5.77;;;4.70;;
18789;SDS011;9523;42.650;23.386;2022-07-09T05:59:40;6.27;;;5.67;;
18789;SDS011;9523;42.650;23.386;2022-07-09T06:02:07;5.23;;;4.73;;
18789;SDS011;9523;42.650;23.386;2022-07-09T06:04:34;5.10;;;4.60;;
18789;SDS011;9523;42.650;23.386;2022-07-09T06:07:01;6.03;;;4.13;;
18789;SDS011;9523;42.650;23.386;2022-07-09T06:09:28;5.43;;;3.80;;
18789;SDS011;9523;42.650;23.386;2022-07-09T06:11:55;4.30;;;3.90;;
18789;SDS011;9523;42.650;23.386;2022-07-09T06:14:23;4.20;;;3.80;;
18789;SDS011;9523;42.650;23.386;2022-07-09T06:16:50;4.47;;;4.13;;
18789;SDS011;9523;42.650;23.386;2022-07-09T06:19:19;4.87;;;4.40;;
18789;SDS011;9523;42.650;23.386;2022-07-09T06:21:46;4.67;;;4.27;;
18789;SDS011;9523;42.650;23.386;2022-07-09T06:24:13;4.33;;;3.93;;
18789;SDS011;9523;42.650;23.386;2022-07-09T06:26:39;8.53;;;4.40;;
18789;SDS011;9523;42.650;23.386;2022-07-09T06:29:08;4.40;;;4.00;;
18789;SDS011;9523;42.650;23.386;2022-07-09T06:31:36;4.90;;;4.40;;
18789;SDS011;9523;42.650;23.386;2022-07-09T06:34:03;5.00;;;4.50;;
18789;SDS011;9523;42.650;23.386;2022-07-09T06:36:30;5.20;;;4.70;;
18789;SDS011;9523;42.650;23.386;2022-07-09T06:38:57;4.90;;;4.40;;
18789;SDS011;9523;42.650;23.386;2022-07-09T06:41:41;5.97;;;4.63;;
18789;SDS011;9523;42.650;23.386;2022-07-09T06:44:08;5.37;;;4.87;;
18789;SDS011;9523;42.650;23.386;2022-07-09T06:46:37;6.10;;;4.77;;
18789;SDS011;9523;42.650;23.386;2022-07-09T06:49:04;4.63;;;4.20;;
18789;SDS011;9523;42.650;23.386;2022-07-09T06:51:31;6.20;;;4.57;;
18789;SDS011;9523;42.650;23.386;2022-07-09T06:53:58;5.43;;;4.47;;
18789;SDS011;9523;42.650;23.386;2022-07-09T06:56:25;5.00;;;4.60;;
18789;SDS011;9523;42.650;23.386;2022-07-09T06:58:52;5.33;;;4.83;;
18789;SDS011;9523;42.650;23.386;2022-07-09T07:01:19;5.97;;;5.47;;
18789;SDS011;9523;42.650;23.386;2022-07-09T07:03:47;4.97;;;4.47;;
18789;SDS011;9523;42.650;23.386;2022-07-09T07:06:14;7.30;;;5.47;;
18789;SDS011;9523;42.650;23.386;2022-07-09T07:08:41;8.13;;;4.80;;
18789;SDS011;9523;42.650;23.386;2022-07-09T07:11:08;6.77;;;5.17;;
18789;SDS011;9523;42.650;23.386;2022-07-09T07:13:35;5.20;;;4.70;;
18789;SDS011;9523;42.650;23.386;2022-07-09T07:16:02;5.30;;;4.80;;
18789;SDS011;9523;42.650;23.386;2022-07-09T07:18:29;5.57;;;4.83;;
18789;SDS011;9523;42.650;23.386;2022-07-09T07:20:57;5.70;;;5.20;;
18789;SDS011;9523;42.650;23.386;2022-07-09T07:23:24;5.63;;;5.03;;
18789;SDS011;9523;42.650;23.386;2022-07-09T07:25:56;6.13;;;5.07;;
18789;SDS011;9523;42.650;23.386;2022-07-09T07:28:24;6.63;;;4.80;;
18789;SDS011;9523;42.650;23.386;2022-07-09T07:30:51;5.40;;;4.90;;
18789;SDS011;9523;42.650;23.386;2022-07-09T07:33:21;6.73;;;4.90;;
18789;SDS011;9523;42.650;23.386;2022-07-09T07:35:48;19.30;;;13.03;;
18789;SDS011;9523;42.650;23.386;2022-07-09T07:38:19;7.13;;;5.50;;
18789;SDS011;9523;42.650;23.386;2022-07-09T07:40:47;7.03;;;6.03;;
18789;SDS011;9523;42.650;23.386;2022-07-09T07:43:14;5.93;;;5.40;;
18789;SDS011;9523;42.650;23.386;2022-07-09T07:45:41;6.60;;;6.00;;
18789;SDS011;9523;42.650;23.386;2022-07-09T07:48:08;6.13;;;5.53;;
18789;SDS011;9523;42.650;23.386;2022-07-09T07:50:35;7.53;;;5.60;;
18789;SDS011;9523;42.650;23.386;2022-07-09T07:53:04;5.27;;;4.77;;
18789;SDS011;9523;42.650;23.386;2022-07-09T07:55:32;8.20;;;5.17;;
18789;SDS011;9523;42.650;23.386;2022-07-09T07:58:00;5.47;;;4.90;;
18789;SDS011;9523;42.650;23.386;2022-07-09T08:00:27;5.33;;;4.83;;
18789;SDS011;9523;42.650;23.386;2022-07-09T08:02:54;6.37;;;5.20;;
18789;SDS011;9523;42.650;23.386;2022-07-09T08:05:24;6.57;;;5.20;;
18789;SDS011;9523;42.650;23.386;2022-07-09T08:07:51;6.17;;;5.30;;
18789;SDS011;9523;42.650;23.386;2022-07-09T08:10:21;4.87;;;4.47;;
18789;SDS011;9523;42.650;23.386;2022-07-09T08:12:51;5.37;;;4.63;;
18789;SDS011;9523;42.650;23.386;2022-07-09T08:15:18;5.60;;;5.07;;
18789;SDS011;9523;42.650;23.386;2022-07-09T08:17:45;5.43;;;4.50;;
18789;SDS011;9523;42.650;23.386;2022-07-09T08:20:13;5.43;;;4.33;;
18789;SDS011;9523;42.650;23.386;2022-07-09T08:22:40;4.67;;;4.23;;
18789;SDS011;9523;42.650;23.386;2022-07-09T08:25:07;11.23;;;7.47;;
18789;SDS011;9523;42.650;23.386;2022-07-09T08:27:35;5.23;;;4.73;;
18789;SDS011;9523;42.650;23.386;2022-07-09T08:30:04;5.23;;;4.73;;
18789;SDS011;9523;42.650;23.386;2022-07-09T08:32:33;4.60;;;4.20;;
18789;SDS011;9523;42.650;23.386;2022-07-09T08:35:00;7.00;;;4.93;;
18789;SDS011;9523;42.650;23.386;2022-07-09T08:37:27;5.30;;;4.60;;
18789;SDS011;9523;42.650;23.386;2022-07-09T08:39:56;6.60;;;4.77;;
18789;SDS011;9523;42.650;23.386;2022-07-09T08:42:26;4.97;;;4.47;;
18789;SDS011;9523;42.650;23.386;2022-07-09T08:44:53;4.87;;;4.37;;
18789;SDS011;9523;42.650;23.386;2022-07-09T08:47:22;6.23;;;5.57;;
18789;SDS011;9523;42.650;23.386;2022-07-09T08:49:50;5.23;;;4.73;;
18789;SDS011;9523;42.650;23.386;2022-07-09T08:52:23;5.20;;;4.63;;
18789;SDS011;9523;42.650;23.386;2022-07-09T08:54:52;5.77;;;4.40;;
18789;SDS011;9523;42.650;23.386;2022-07-09T08:57:20;5.97;;;4.53;;
18789;SDS011;9523;42.650;23.386;2022-07-09T08:59:47;5.10;;;4.20;;
18789;SDS011;9523;42.650;23.386;2022-07-09T09:02:14;6.20;;;5.60;;
18789;SDS011;9523;42.650;23.386;2022-07-09T09:04:46;6.13;;;4.53;;
18789;SDS011;9523;42.650;23.386;2022-07-09T09:07:14;4.67;;;4.27;;
18789;SDS011;9523;42.650;23.386;2022-07-09T09:09:42;5.17;;;4.73;;
18789;SDS011;9523;42.650;23.386;2022-07-09T09:12:09;4.53;;;4.13;;
18789;SDS011;9523;42.650;23.386;2022-07-09T09:14:39;4.47;;;4.07;;
18789;SDS011;9523;42.650;23.386;2022-07-09T09:17:14;6.03;;;4.67;;
18789;SDS011;9523;42.650;23.386;2022-07-09T09:19:41;6.33;;;5.50;;
18789;SDS011;9523;42.650;23.386;2022-07-09T09:22:09;6.33;;;5.23;;
18789;SDS011;9523;42.650;23.386;2022-07-09T09:24:36;5.03;;;4.53;;
18789;SDS011;9523;42.650;23.386;2022-07-09T09:27:03;5.97;;;5.20;;
18789;SDS011;9523;42.650;23.386;2022-07-09T09:29:32;5.47;;;4.53;;
18789;SDS011;9523;42.650;23.386;2022-07-09T09:32:08;5.63;;;5.07;;
18789;SDS011;9523;42.650;23.386;2022-07-09T09:34:36;8.63;;;5.40;;
18789;SDS011;9523;42.650;23.386;2022-07-09T09:37:06;7.27;;;5.67;;
18789;SDS011;9523;42.650;23.386;2022-07-09T09:39:35;5.97;;;5.37;;
18789;SDS011;9523;42.650;23.386;2022-07-09T09:42:02;6.03;;;5.43;;
18789;SDS011;9523;42.650;23.386;2022-07-09T09:44:36;6.17;;;5.40;;
18789;SDS011;9523;42.650;23.386;2022-07-09T09:47:03;5.63;;;5.13;;
18789;SDS011;9523;42.650;23.386;2022-07-09T09:49:32;6.53;;;5.77;;
18789;SDS011;9523;42.650;23.386;2022-07-09T09:52:06;6.93;;;6.33;;
18789;SDS011;9523;42.650;23.386;2022-07-09T09:54:36;6.07;;;5.47;;
18789;SDS011;9523;42.650;23.386;2022-07-09T09:57:05;6.07;;;5.53;;
18789;SDS011;9523;42.650;23.386;2022-07-09T09:59:35;6.05;;;4.97;;
18789;SDS011;9523;42.650;23.386;2022-07-09T10:02:07;5.20;;;4.47;;
18789;SDS011;9523;42.650;23.386;2022-07-09T10:04:35;5.13;;;4.43;;
18789;SDS011;9523;42.650;23.386;2022-07-09T10:07:05;6.72;;;5.18;;
18789;SDS011;9523;42.650;23.386;2022-07-09T10:09:33;5.00;;;4.60;;
18789;SDS011;9523;42.650;23.386;2022-07-09T10:12:01;5.53;;;5.00;;
18789;SDS011;9523;42.650;23.386;2022-07-09T10:14:29;5.55;;;4.82;;
18789;SDS011;9523;42.650;23.386;2022-07-09T10:17:08;4.72;;;4.32;;
18789;SDS011;9523;42.650;23.386;2022-07-09T10:19:53;4.70;;;4.30;;
18789;SDS011;9523;42.650;23.386;2022-07-09T10:22:22;5.70;;;4.80;;
18789;SDS011;9523;42.650;23.386;2022-07-09T10:25:00;4.45;;;3.70;;
18789;SDS011;9523;42.650;23.386;2022-07-09T10:27:41;4.50;;;4.10;;
18789;SDS011;9523;42.650;23.386;2022-07-09T10:30:21;5.10;;;4.63;;
18789;SDS011;9523;42.650;23.386;2022-07-09T10:33:00;4.95;;;4.50;;
18789;SDS011;9523;42.650;23.386;2022-07-09T10:35:28;5.37;;;4.40;;
18789;SDS011;9523;42.650;23.386;2022-07-09T10:37:56;4.88;;;4.47;;
18789;SDS011;9523;42.650;23.386;2022-07-09T10:40:23;7.07;;;5.05;;
18789;SDS011;9523;42.650;23.386;2022-07-09T10:43:00;6.55;;;5.47;;
18789;SDS011;9523;42.650;23.386;2022-07-09T10:45:35;5.40;;;4.90;;
18789;SDS011;9523;42.650;23.386;2022-07-09T10:48:04;4.33;;;3.93;;
18789;SDS011;9523;42.650;23.386;2022-07-09T10:50:41;4.47;;;4.07;;
18789;SDS011;9523;42.650;23.386;2022-07-09T10:53:09;4.40;;;4.00;;
18789;SDS011;9523;42.650;23.386;2022-07-09T10:55:40;4.40;;;4.00;;
18789;SDS011;9523;42.650;23.386;2022-07-09T10:58:17;4.72;;;4.20;;
18789;SDS011;9523;42.650;23.386;2022-07-09T11:00:44;4.07;;;3.72;;
18789;SDS011;9523;42.650;23.386;2022-07-09T11:03:11;3.40;;;3.10;;
18789;SDS011;9523;42.650;23.386;2022-07-09T11:05:43;3.15;;;2.85;;
18789;SDS011;9523;42.650;23.386;2022-07-09T11:08:11;4.40;;;3.20;;
18789;SDS011;9523;42.650;23.386;2022-07-09T11:10:38;4.40;;;3.85;;
18789;SDS011;9523;42.650;23.386;2022-07-09T11:13:06;3.30;;;3.00;;
18789;SDS011;9523;42.650;23.386;2022-07-09T11:15:36;4.72;;;3.15;;
18789;SDS011;9523;42.650;23.386;2022-07-09T11:18:05;4.80;;;3.20;;
18789;SDS011;9523;42.650;23.386;2022-07-09T11:20:32;4.35;;;2.80;;
18789;SDS011;9523;42.650;23.386;2022-07-09T11:23:03;3.50;;;2.97;;
18789;SDS011;9523;42.650;23.386;2022-07-09T11:25:31;3.03;;;2.73;;
18789;SDS011;9523;42.650;23.386;2022-07-09T11:27:59;3.60;;;2.67;;
18789;SDS011;9523;42.650;23.386;2022-07-09T11:30:27;4.40;;;4.00;;
18789;SDS011;9523;42.650;23.386;2022-07-09T11:32:58;3.37;;;2.70;;
18789;SDS011;9523;42.650;23.386;2022-07-09T11:35:27;7.20;;;3.63;;
18789;SDS011;9523;42.650;23.386;2022-07-09T11:37:58;4.63;;;2.73;;
18789;SDS011;9523;42.650;23.386;2022-07-09T11:40:26;4.07;;;3.00;;
18789;SDS011;9523;42.650;23.386;2022-07-09T11:42:53;2.57;;;2.17;;
18789;SDS011;9523;42.650;23.386;2022-07-09T11:45:21;3.50;;;2.53;;
18789;SDS011;9523;42.650;23.386;2022-07-09T11:47:48;2.97;;;2.40;;
18789;SDS011;9523;42.650;23.386;2022-07-09T11:50:17;3.10;;;2.07;;
18789;SDS011;9523;42.650;23.386;2022-07-09T11:52:48;2.20;;;2.00;;
18789;SDS011;9523;42.650;23.386;2022-07-09T11:55:17;2.87;;;2.00;;
18789;SDS011;9523;42.650;23.386;2022-07-09T11:57:52;2.43;;;1.93;;
18789;SDS011;9523;42.650;23.386;2022-07-09T12:00:20;2.30;;;2.10;;
18789;SDS011;9523;42.650;23.386;2022-07-09T12:02:52;2.93;;;1.90;;
18789;SDS011;9523;42.650;23.386;2022-07-09T12:05:25;3.30;;;1.97;;
18789;SDS011;9523;42.650;23.386;2022-07-09T12:07:56;2.70;;;2.50;;
18789;SDS011;9523;42.650;23.386;2022-07-09T12:10:27;2.13;;;1.87;;
18789;SDS011;9523;42.650;23.386;2022-07-09T12:12:57;2.93;;;2.67;;
18789;SDS011;9523;42.650;23.386;2022-07-09T12:15:25;2.43;;;2.03;;
18789;SDS011;9523;42.650;23.386;2022-07-09T12:17:53;2.13;;;1.73;;
18789;SDS011;9523;42.650;23.386;2022-07-09T12:20:22;1.93;;;1.83;;
18789;SDS011;9523;42.650;23.386;2022-07-09T12:22:51;2.57;;;2.20;;
18789;SDS011;9523;42.650;23.386;2022-07-09T12:25:18;4.40;;;2.33;;
18789;SDS011;9523;42.650;23.386;2022-07-09T12:27:46;3.03;;;2.10;;
18789;SDS011;9523;42.650;23.386;2022-07-09T12:30:16;4.67;;;2.20;;
18789;SDS011;9523;42.650;23.386;2022-07-09T12:32:44;2.50;;;2.30;;
18789;SDS011;9523;42.650;23.386;2022-07-09T12:35:11;3.43;;;2.30;;
18789;SDS011;9523;42.650;23.386;2022-07-09T12:37:39;2.07;;;1.87;;
18789;SDS011;9523;42.650;23.386;2022-07-09T12:40:08;2.40;;;2.20;;
18789;SDS011;9523;42.650;23.386;2022-07-09T12:42:36;2.50;;;2.30;;
18789;SDS011;9523;42.650;23.386;2022-07-09T12:45:04;2.37;;;2.17;;
18789;SDS011;9523;42.650;23.386;2022-07-09T12:47:33;2.00;;;1.90;;
18789;SDS011;9523;42.650;23.386;2022-07-09T12:49:59;17.87;;;12.93;;
18789;SDS011;9523;42.650;23.386;2022-07-09T12:52:30;6.67;;;2.17;;
18789;SDS011;9523;42.650;23.386;2022-07-09T12:55:02;3.17;;;2.20;;
18789;SDS011;9523;42.650;23.386;2022-07-09T12:57:32;2.60;;;2.10;;
18789;SDS011;9523;42.650;23.386;2022-07-09T12:59:59;2.20;;;2.00;;
18789;SDS011;9523;42.650;23.386;2022-07-09T13:02:32;2.10;;;2.00;;
18789;SDS011;9523;42.650;23.386;2022-07-09T13:05:02;2.40;;;2.20;;
18789;SDS011;9523;42.650;23.386;2022-07-09T13:07:29;2.63;;;2.10;;
18789;SDS011;9523;42.650;23.386;2022-07-09T13:09:56;2.50;;;2.30;;
18789;SDS011;9523;42.650;23.386;2022-07-09T13:12:22;2.80;;;2.40;;
18789;SDS011;9523;42.650;23.386;2022-07-09T13:14:51;2.70;;;2.43;;
18789;SDS011;9523;42.650;23.386;2022-07-09T13:17:17;3.37;;;2.40;;
18789;SDS011;9523;42.650;23.386;2022-07-09T13:19:44;2.33;;;2.13;;
18789;SDS011;9523;42.650;23.386;2022-07-09T13:22:13;2.60;;;2.40;;
18789;SDS011;9523;42.650;23.386;2022-07-09T13:24:40;3.97;;;2.40;;
18789;SDS011;9523;42.650;23.386;2022-07-09T13:27:07;2.47;;;1.90;;
18789;SDS011;9523;42.650;23.386;2022-07-09T13:29:36;4.07;;;2.00;;
18789;SDS011;9523;42.650;23.386;2022-07-09T13:32:05;2.40;;;2.20;;
18789;SDS011;9523;42.650;23.386;2022-07-09T13:34:32;2.47;;;2.27;;
18789;SDS011;9523;42.650;23.386;2022-07-09T13:36:59;3.00;;;2.60;;
18789;SDS011;9523;42.650;23.386;2022-07-09T13:39:27;3.13;;;2.20;;
18789;SDS011;9523;42.650;23.386;2022-07-09T13:41:54;2.73;;;2.07;;
18789;SDS011;9523;42.650;23.386;2022-07-09T13:44:21;3.10;;;2.50;;
18789;SDS011;9523;42.650;23.386;2022-07-09T13:46:48;4.00;;;2.50;;
18789;SDS011;9523;42.650;23.386;2022-07-09T13:49:16;3.20;;;2.50;;
18789;SDS011;9523;42.650;23.386;2022-07-09T13:51:43;2.47;;;2.27;;
18789;SDS011;9523;42.650;23.386;2022-07-09T13:54:10;51.53;;;4.63;;
18789;SDS011;9523;42.650;23.386;2022-07-09T13:56:37;2.85;;;2.03;;
18789;SDS011;9523;42.650;23.386;2022-07-09T13:59:06;2.40;;;2.20;;
18789;SDS011;9523;42.650;23.386;2022-07-09T14:01:33;2.88;;;1.95;;
18789;SDS011;9523;42.650;23.386;2022-07-09T14:04:00;3.72;;;2.30;;
18789;SDS011;9523;42.650;23.386;2022-07-09T14:06:28;3.63;;;2.07;;
18789;SDS011;9523;42.650;23.386;2022-07-09T14:08:55;3.45;;;2.17;;
18789;SDS011;9523;42.650;23.386;2022-07-09T14:11:25;2.55;;;2.25;;
18789;SDS011;9523;42.650;23.386;2022-07-09T14:13:52;4.17;;;2.40;;
18789;SDS011;9523;42.650;23.386;2022-07-09T14:16:20;2.37;;;2.17;;
18789;SDS011;9523;42.650;23.386;2022-07-09T14:18:47;2.63;;;2.10;;
18789;SDS011;9523;42.650;23.386;2022-07-09T14:21:14;3.30;;;2.67;;
18789;SDS011;9523;42.650;23.386;2022-07-09T14:23:42;3.17;;;2.80;;
18789;SDS011;9523;42.650;23.386;2022-07-09T14:26:13;2.70;;;2.50;;
18789;SDS011;9523;42.650;23.386;2022-07-09T14:28:40;3.10;;;2.30;;
18789;SDS011;9523;42.650;23.386;2022-07-09T14:31:09;2.90;;;2.43;;
18789;SDS011;9523;42.650;23.386;2022-07-09T14:33:37;3.37;;;2.27;;
18789;SDS011;9523;42.650;23.386;2022-07-09T14:36:04;2.40;;;2.20;;
18789;SDS011;9523;42.650;23.386;2022-07-09T14:38:32;3.03;;;2.70;;
18789;SDS011;9523;42.650;23.386;2022-07-09T14:41:00;2.40;;;2.20;;
18789;SDS011;9523;42.650;23.386;2022-07-09T14:43:27;4.80;;;3.70;;
18789;SDS011;9523;42.650;23.386;2022-07-09T14:45:54;2.77;;;2.57;;
18789;SDS011;9523;42.650;23.386;2022-07-09T14:48:21;4.87;;;2.70;;
18789;SDS011;9523;42.650;23.386;2022-07-09T14:50:51;2.90;;;2.60;;